sensor_id;sensor_type;location;lat;lon;timestamp;pressure;altitude;pressure_sealevel;temperature;humidity
61292;BME280;47165;42.664;23.368;2023-04-20T00:00:47;94653.75;;;12.58;56.86
61292;BME280;47165;42.664;23.368;2023-04-20T00:03:12;94655.41;;;12.59;56.49
61292;BME280;47165;42.664;23.368;2023-04-20T00:05:38;94647.81;;;12.43;55.53
61292;BME280;47165;42.664;23.368;2023-04-20T00:08:03;94646.44;;;12.50;55.07
61292;BME280;47165;42.664;23.368;2023-04-20T00:10:29;94642.09;;;12.12;54.96
61292;BME280;47165;42.664;23.368;2023-04-20T00:12:54;94648.38;;;12.22;55.04
61292;BME280;47165;42.664;23.368;2023-04-20T00:15:20;94635.16;;;12.24;54.89
61292;BME280;47165;42.664;23.368;2023-04-20T00:17:45;94640.19;;;12.01;55.43
61292;BME280;47165;42.664;23.368;2023-04-20T00:20:12;94634.25;;;12.12;55.78
61292;BME280;47165;42.664;23.368;2023-04-20T00:22:39;94629.94;;;12.11;56.11
61292;BME280;47165;42.664;23.368;2023-04-20T00:25:05;94627.00;;;12.16;55.52
61292;BME280;47165;42.664;23.368;2023-04-20T00:27:31;94636.13;;;12.23;55.88
61292;BME280;47165;42.664;23.368;2023-04-20T00:29:56;94628.91;;;12.26;55.18
61292;BME280;47165;42.664;23.368;2023-04-20T00:32:22;94629.81;;;12.25;55.42
61292;BME280;47165;42.664;23.368;2023-04-20T00:34:47;94626.28;;;12.26;55.55
61292;BME280;47165;42.664;23.368;2023-04-20T00:37:13;94632.44;;;12.25;55.72
61292;BME280;47165;42.664;23.368;2023-04-20T00:39:38;94631.63;;;12.12;55.68
61292;BME280;47165;42.664;23.368;2023-04-20T00:42:06;94620.94;;;12.15;56.00
61292;BME280;47165;42.664;23.368;2023-04-20T00:44:32;94620.09;;;12.15;56.03
61292;BME280;47165;42.664;23.368;2023-04-20T00:46:58;94625.66;;;12.10;56.03
61292;BME280;47165;42.664;23.368;2023-04-20T00:49:27;94626.91;;;12.04;56.29
61292;BME280;47165;42.664;23.368;2023-04-20T00:51:55;94622.50;;;12.05;56.64
61292;BME280;47165;42.664;23.368;2023-04-20T00:54:21;94626.19;;;11.90;56.56
61292;BME280;47165;42.664;23.368;2023-04-20T00:56:47;94620.53;;;11.96;56.82
61292;BME280;47165;42.664;23.368;2023-04-20T00:59:13;94626.38;;;11.99;57.11
61292;BME280;47165;42.664;23.368;2023-04-20T01:01:39;94622.00;;;12.00;57.43
61292;BME280;47165;42.664;23.368;2023-04-20T01:04:05;94621.34;;;11.83;57.62
61292;BME280;47165;42.664;23.368;2023-04-20T01:06:31;94620.91;;;11.51;57.88
61292;BME280;47165;42.664;23.368;2023-04-20T01:08:57;94620.03;;;11.38;58.79
61292;BME280;47165;42.664;23.368;2023-04-20T01:11:22;94625.47;;;11.35;59.18
61292;BME280;47165;42.664;23.368;2023-04-20T01:13:48;94631.44;;;11.37;59.06
61292;BME280;47165;42.664;23.368;2023-04-20T01:16:13;94626.59;;;11.31;59.26
61292;BME280;47165;42.664;23.368;2023-04-20T01:18:44;94631.75;;;11.32;60.02
61292;BME280;47165;42.664;23.368;2023-04-20T01:21:11;94620.75;;;11.40;59.57
61292;BME280;47165;42.664;23.368;2023-04-20T01:23:37;94634.06;;;11.37;59.67
61292;BME280;47165;42.664;23.368;2023-04-20T01:26:11;94624.41;;;11.37;59.78
61292;BME280;47165;42.664;23.368;2023-04-20T01:28:36;94622.72;;;11.23;60.64
61292;BME280;47165;42.664;23.368;2023-04-20T01:31:04;94618.94;;;11.15;60.16
61292;BME280;47165;42.664;23.368;2023-04-20T01:33:30;94625.88;;;11.28;60.19
61292;BME280;47165;42.664;23.368;2023-04-20T01:35:56;94618.78;;;11.31;59.89
61292;BME280;47165;42.664;23.368;2023-04-20T01:38:22;94625.16;;;11.39;59.62
61292;BME280;47165;42.664;23.368;2023-04-20T01:40:48;94617.97;;;11.43;59.49
61292;BME280;47165;42.664;23.368;2023-04-20T01:43:15;94615.75;;;11.50;59.48
61292;BME280;47165;42.664;23.368;2023-04-20T01:49:02;94608.94;;;10.67;60.64
61292;BME280;47165;42.664;23.368;2023-04-20T01:51:27;94611.31;;;10.84;60.84
61292;BME280;47165;42.664;23.368;2023-04-20T01:53:53;94604.94;;;10.61;61.64
61292;BME280;47165;42.664;23.368;2023-04-20T01:56:18;94612.63;;;10.50;62.17
61292;BME280;47165;42.664;23.368;2023-04-20T01:58:44;94610.28;;;10.87;60.69
61292;BME280;47165;42.664;23.368;2023-04-20T02:01:09;94609.22;;;10.77;60.94
61292;BME280;47165;42.664;23.368;2023-04-20T02:03:35;94596.31;;;11.01;60.04
61292;BME280;47165;42.664;23.368;2023-04-20T02:06:00;94598.03;;;11.15;59.66
61292;BME280;47165;42.664;23.368;2023-04-20T02:08:25;94596.38;;;11.26;59.52
61292;BME280;47165;42.664;23.368;2023-04-20T02:10:51;94606.25;;;10.96;60.61
61292;BME280;47165;42.664;23.368;2023-04-20T02:13:16;94601.78;;;11.11;60.10
61292;BME280;47165;42.664;23.368;2023-04-20T02:15:42;94602.88;;;11.34;59.42
61292;BME280;47165;42.664;23.368;2023-04-20T02:18:07;94608.34;;;11.43;59.37
61292;BME280;47165;42.664;23.368;2023-04-20T02:20:34;94602.38;;;11.54;58.89
61292;BME280;47165;42.664;23.368;2023-04-20T02:22:59;94605.63;;;11.58;59.27
61292;BME280;47165;42.664;23.368;2023-04-20T02:25:26;94609.72;;;11.62;58.91
61292;BME280;47165;42.664;23.368;2023-04-20T02:27:51;94604.06;;;11.68;59.03
61292;BME280;47165;42.664;23.368;2023-04-20T02:30:17;94607.09;;;11.75;58.85
61292;BME280;47165;42.664;23.368;2023-04-20T02:32:42;94601.03;;;11.74;58.96
61292;BME280;47165;42.664;23.368;2023-04-20T02:35:08;94602.81;;;11.74;58.82
61292;BME280;47165;42.664;23.368;2023-04-20T02:37:34;94607.09;;;11.75;58.94
61292;BME280;47165;42.664;23.368;2023-04-20T02:39:59;94597.28;;;11.78;58.84
61292;BME280;47165;42.664;23.368;2023-04-20T02:42:25;94608.78;;;11.76;58.68
61292;BME280;47165;42.664;23.368;2023-04-20T02:44:50;94613.91;;;11.77;58.73
61292;BME280;47165;42.664;23.368;2023-04-20T02:47:17;94610.03;;;11.70;58.56
61292;BME280;47165;42.664;23.368;2023-04-20T02:49:43;94622.34;;;11.42;59.25
61292;BME280;47165;42.664;23.368;2023-04-20T02:52:08;94617.00;;;11.31;59.14
61292;BME280;47165;42.664;23.368;2023-04-20T02:54:33;94611.03;;;11.42;59.08
61292;BME280;47165;42.664;23.368;2023-04-20T02:56:59;94605.38;;;11.35;59.37
61292;BME280;47165;42.664;23.368;2023-04-20T02:59:25;94606.97;;;11.38;59.34
61292;BME280;47165;42.664;23.368;2023-04-20T03:01:51;94606.84;;;11.39;58.86
61292;BME280;47165;42.664;23.368;2023-04-20T03:04:16;94609.47;;;11.52;58.75
61292;BME280;47165;42.664;23.368;2023-04-20T03:06:42;94604.56;;;11.47;59.22
61292;BME280;47165;42.664;23.368;2023-04-20T03:09:07;94609.19;;;11.57;58.75
61292;BME280;47165;42.664;23.368;2023-04-20T03:11:33;94604.78;;;11.44;58.66
61292;BME280;47165;42.664;23.368;2023-04-20T03:13:59;94609.91;;;11.46;59.18
61292;BME280;47165;42.664;23.368;2023-04-20T03:16:24;94608.56;;;11.40;58.96
61292;BME280;47165;42.664;23.368;2023-04-20T03:18:50;94606.66;;;11.42;58.95
61292;BME280;47165;42.664;23.368;2023-04-20T03:21:15;94603.34;;;11.53;58.55
61292;BME280;47165;42.664;23.368;2023-04-20T03:23:41;94605.84;;;11.55;58.40
61292;BME280;47165;42.664;23.368;2023-04-20T03:26:06;94603.09;;;11.56;58.40
61292;BME280;47165;42.664;23.368;2023-04-20T03:28:32;94601.97;;;11.60;58.50
61292;BME280;47165;42.664;23.368;2023-04-20T03:30:57;94602.69;;;11.62;57.89
61292;BME280;47165;42.664;23.368;2023-04-20T03:33:23;94605.75;;;11.69;57.80
61292;BME280;47165;42.664;23.368;2023-04-20T03:35:49;94603.66;;;11.61;58.04
61292;BME280;47165;42.664;23.368;2023-04-20T03:38:14;94610.75;;;11.72;57.96
61292;BME280;47165;42.664;23.368;2023-04-20T03:40:39;94607.09;;;11.49;58.45
61292;BME280;47165;42.664;23.368;2023-04-20T03:43:05;94607.91;;;11.50;58.34
61292;BME280;47165;42.664;23.368;2023-04-20T03:45:30;94609.06;;;11.45;58.02
61292;BME280;47165;42.664;23.368;2023-04-20T03:51:17;94603.53;;;11.50;57.92
61292;BME280;47165;42.664;23.368;2023-04-20T03:53:43;94612.53;;;11.59;57.63
61292;BME280;47165;42.664;23.368;2023-04-20T03:56:08;94615.47;;;11.67;57.84
61292;BME280;47165;42.664;23.368;2023-04-20T03:58:33;94611.72;;;11.71;57.98
61292;BME280;47165;42.664;23.368;2023-04-20T04:01:05;94611.09;;;11.67;57.95
61292;BME280;47165;42.664;23.368;2023-04-20T04:03:34;94613.38;;;11.72;57.61
61292;BME280;47165;42.664;23.368;2023-04-20T04:05:59;94612.97;;;11.78;57.70
61292;BME280;47165;42.664;23.368;2023-04-20T04:08:25;94625.63;;;11.84;57.54
61292;BME280;47165;42.664;23.368;2023-04-20T04:10:51;94624.25;;;11.79;57.24
61292;BME280;47165;42.664;23.368;2023-04-20T04:13:16;94621.78;;;11.77;57.27
61292;BME280;47165;42.664;23.368;2023-04-20T04:15:41;94626.59;;;11.83;57.18
61292;BME280;47165;42.664;23.368;2023-04-20T04:18:07;94628.06;;;11.87;57.04
61292;BME280;47165;42.664;23.368;2023-04-20T04:20:32;94631.59;;;11.86;57.11
61292;BME280;47165;42.664;23.368;2023-04-20T04:22:57;94623.75;;;11.86;57.09
61292;BME280;47165;42.664;23.368;2023-04-20T04:25:23;94623.84;;;11.72;57.71
61292;BME280;47165;42.664;23.368;2023-04-20T04:27:49;94624.91;;;11.82;57.23
61292;BME280;47165;42.664;23.368;2023-04-20T04:30:15;94621.53;;;11.80;57.73
61292;BME280;47165;42.664;23.368;2023-04-20T04:32:40;94631.59;;;11.86;57.56
61292;BME280;47165;42.664;23.368;2023-04-20T04:35:07;94631.28;;;11.78;57.83
61292;BME280;47165;42.664;23.368;2023-04-20T04:37:32;94615.69;;;11.77;57.04
61292;BME280;47165;42.664;23.368;2023-04-20T04:39:57;94635.50;;;11.94;56.75
61292;BME280;47165;42.664;23.368;2023-04-20T04:42:24;94637.50;;;11.90;56.75
61292;BME280;47165;42.664;23.368;2023-04-20T04:44:51;94631.19;;;11.80;57.35
61292;BME280;47165;42.664;23.368;2023-04-20T04:47:18;94634.94;;;11.63;57.65
61292;BME280;47165;42.664;23.368;2023-04-20T04:49:46;94640.91;;;11.65;57.51
61292;BME280;47165;42.664;23.368;2023-04-20T04:52:12;94648.53;;;11.68;57.51
61292;BME280;47165;42.664;23.368;2023-04-20T04:54:37;94642.47;;;11.80;57.55
61292;BME280;47165;42.664;23.368;2023-04-20T04:57:03;94643.56;;;11.91;57.03
61292;BME280;47165;42.664;23.368;2023-04-20T04:59:28;94645.03;;;11.95;57.14
61292;BME280;47165;42.664;23.368;2023-04-20T05:01:53;94643.13;;;11.97;56.82
61292;BME280;47165;42.664;23.368;2023-04-20T05:04:19;94647.19;;;11.88;56.84
61292;BME280;47165;42.664;23.368;2023-04-20T05:06:45;94651.22;;;11.94;57.52
61292;BME280;47165;42.664;23.368;2023-04-20T05:09:10;94643.38;;;11.94;56.62
61292;BME280;47165;42.664;23.368;2023-04-20T05:11:35;94656.31;;;11.95;56.85
61292;BME280;47165;42.664;23.368;2023-04-20T05:14:01;94653.47;;;11.20;58.78
61292;BME280;47165;42.664;23.368;2023-04-20T05:16:27;94651.69;;;11.33;58.97
61292;BME280;47165;42.664;23.368;2023-04-20T05:18:53;94646.66;;;11.70;58.50
61292;BME280;47165;42.664;23.368;2023-04-20T05:21:18;94651.38;;;11.78;57.68
61292;BME280;47165;42.664;23.368;2023-04-20T05:23:44;94643.63;;;11.76;57.24
61292;BME280;47165;42.664;23.368;2023-04-20T05:26:09;94644.03;;;11.83;57.42
61292;BME280;47165;42.664;23.368;2023-04-20T05:28:34;94648.66;;;11.79;57.18
61292;BME280;47165;42.664;23.368;2023-04-20T05:31:00;94653.81;;;11.94;56.96
61292;BME280;47165;42.664;23.368;2023-04-20T05:33:26;94654.34;;;11.99;56.61
61292;BME280;47165;42.664;23.368;2023-04-20T05:35:55;94654.25;;;12.00;57.05
61292;BME280;47165;42.664;23.368;2023-04-20T05:38:21;94651.53;;;12.02;56.48
61292;BME280;47165;42.664;23.368;2023-04-20T05:40:47;94658.94;;;11.95;56.56
61292;BME280;47165;42.664;23.368;2023-04-20T05:43:12;94668.88;;;12.03;55.97
61292;BME280;47165;42.664;23.368;2023-04-20T05:45:37;94669.47;;;11.81;57.13
61292;BME280;47165;42.664;23.368;2023-04-20T05:51:24;94662.19;;;11.99;56.83
61292;BME280;47165;42.664;23.368;2023-04-20T05:53:53;94660.69;;;11.69;56.99
61292;BME280;47165;42.664;23.368;2023-04-20T05:56:18;94660.81;;;11.93;56.75
61292;BME280;47165;42.664;23.368;2023-04-20T05:58:44;94654.97;;;12.02;56.40
61292;BME280;47165;42.664;23.368;2023-04-20T06:01:09;94658.09;;;12.07;56.55
61292;BME280;47165;42.664;23.368;2023-04-20T06:03:35;94653.59;;;12.10;56.50
61292;BME280;47165;42.664;23.368;2023-04-20T06:06:01;94658.72;;;12.11;56.75
61292;BME280;47165;42.664;23.368;2023-04-20T06:08:26;94663.66;;;11.50;58.93
61292;BME280;47165;42.664;23.368;2023-04-20T06:10:53;94662.88;;;11.75;59.10
61292;BME280;47165;42.664;23.368;2023-04-20T06:13:19;94662.72;;;11.38;59.67
61292;BME280;47165;42.664;23.368;2023-04-20T06:15:44;94662.22;;;11.59;59.29
61292;BME280;47165;42.664;23.368;2023-04-20T06:18:10;94660.78;;;11.80;59.19
61292;BME280;47165;42.664;23.368;2023-04-20T06:20:35;94675.69;;;11.93;59.30
61292;BME280;47165;42.664;23.368;2023-04-20T06:23:03;94664.59;;;12.02;58.53
61292;BME280;47165;42.664;23.368;2023-04-20T06:25:28;94663.13;;;12.11;58.52
61292;BME280;47165;42.664;23.368;2023-04-20T06:27:54;94671.28;;;12.19;58.28
61292;BME280;47165;42.664;23.368;2023-04-20T06:30:19;94665.97;;;12.20;58.13
61292;BME280;47165;42.664;23.368;2023-04-20T06:32:45;94666.78;;;12.21;58.09
61292;BME280;47165;42.664;23.368;2023-04-20T06:35:10;94667.53;;;12.10;57.75
61292;BME280;47165;42.664;23.368;2023-04-20T06:37:36;94665.34;;;12.17;57.55
61292;BME280;47165;42.664;23.368;2023-04-20T06:40:02;94671.78;;;11.85;58.08
61292;BME280;47165;42.664;23.368;2023-04-20T06:42:32;94669.66;;;11.65;59.57
61292;BME280;47165;42.664;23.368;2023-04-20T06:44:57;94673.84;;;11.67;59.15
61292;BME280;47165;42.664;23.368;2023-04-20T06:47:23;94683.63;;;11.91;58.67
61292;BME280;47165;42.664;23.368;2023-04-20T06:49:56;94683.03;;;12.00;58.41
61292;BME280;47165;42.664;23.368;2023-04-20T06:52:22;94676.28;;;11.83;58.37
61292;BME280;47165;42.664;23.368;2023-04-20T06:54:48;94686.44;;;11.75;58.73
61292;BME280;47165;42.664;23.368;2023-04-20T06:57:13;94681.88;;;11.92;58.50
61292;BME280;47165;42.664;23.368;2023-04-20T06:59:38;94683.53;;;12.05;58.19
61292;BME280;47165;42.664;23.368;2023-04-20T07:02:04;94695.41;;;11.71;59.87
61292;BME280;47165;42.664;23.368;2023-04-20T07:04:29;94696.41;;;11.56;60.32
61292;BME280;47165;42.664;23.368;2023-04-20T07:06:55;94698.31;;;11.66;60.55
61292;BME280;47165;42.664;23.368;2023-04-20T07:09:20;94702.28;;;11.59;60.82
61292;BME280;47165;42.664;23.368;2023-04-20T07:11:47;94694.63;;;11.96;59.75
61292;BME280;47165;42.664;23.368;2023-04-20T07:14:12;94697.50;;;11.79;60.18
61292;BME280;47165;42.664;23.368;2023-04-20T07:16:38;94702.38;;;11.58;61.24
61292;BME280;47165;42.664;23.368;2023-04-20T07:19:03;94702.72;;;11.79;60.58
61292;BME280;47165;42.664;23.368;2023-04-20T07:21:29;94698.31;;;11.94;60.22
61292;BME280;47165;42.664;23.368;2023-04-20T07:23:56;94697.06;;;12.12;59.80
61292;BME280;47165;42.664;23.368;2023-04-20T07:26:23;94692.56;;;12.14;59.52
61292;BME280;47165;42.664;23.368;2023-04-20T07:28:50;94694.41;;;12.38;59.06
61292;BME280;47165;42.664;23.368;2023-04-20T07:31:15;94692.03;;;12.35;58.66
61292;BME280;47165;42.664;23.368;2023-04-20T07:33:41;94701.03;;;12.43;58.48
61292;BME280;47165;42.664;23.368;2023-04-20T07:36:07;94708.13;;;12.54;58.27
61292;BME280;47165;42.664;23.368;2023-04-20T07:38:33;94694.72;;;12.46;58.42
61292;BME280;47165;42.664;23.368;2023-04-20T07:40:58;94696.09;;;12.13;58.64
61292;BME280;47165;42.664;23.368;2023-04-20T07:43:24;94699.69;;;12.12;59.69
61292;BME280;47165;42.664;23.368;2023-04-20T07:45:49;94686.88;;;12.46;58.96
61292;BME280;47165;42.664;23.368;2023-04-20T07:51:37;94686.66;;;12.62;57.11
61292;BME280;47165;42.664;23.368;2023-04-20T07:54:02;94686.88;;;11.95;59.09
61292;BME280;47165;42.664;23.368;2023-04-20T07:56:29;94690.16;;;12.37;58.35
61292;BME280;47165;42.664;23.368;2023-04-20T07:58:54;94688.13;;;12.53;57.92
61292;BME280;47165;42.664;23.368;2023-04-20T08:01:24;94680.59;;;12.61;57.17
61292;BME280;47165;42.664;23.368;2023-04-20T08:03:51;94679.50;;;12.77;56.64
61292;BME280;47165;42.664;23.368;2023-04-20T08:06:19;94690.63;;;13.04;55.63
61292;BME280;47165;42.664;23.368;2023-04-20T08:08:44;94693.69;;;12.98;56.45
61292;BME280;47165;42.664;23.368;2023-04-20T08:11:10;94695.44;;;13.11;55.94
61292;BME280;47165;42.664;23.368;2023-04-20T08:13:36;94697.91;;;12.88;55.65
61292;BME280;47165;42.664;23.368;2023-04-20T08:16:02;94690.44;;;12.95;54.80
61292;BME280;47165;42.664;23.368;2023-04-20T08:18:27;94693.13;;;13.06;54.02
61292;BME280;47165;42.664;23.368;2023-04-20T08:20:55;94687.53;;;13.23;54.03
61292;BME280;47165;42.664;23.368;2023-04-20T08:23:20;94691.03;;;13.11;55.32
61292;BME280;47165;42.664;23.368;2023-04-20T08:25:52;94695.16;;;12.89;54.62
61292;BME280;47165;42.664;23.368;2023-04-20T08:28:17;94691.13;;;13.09;54.73
61292;BME280;47165;42.664;23.368;2023-04-20T08:30:43;94702.97;;;13.15;55.01
61292;BME280;47165;42.664;23.368;2023-04-20T08:33:09;94702.00;;;12.92;55.85
61292;BME280;47165;42.664;23.368;2023-04-20T08:35:35;94699.00;;;13.09;55.24
61292;BME280;47165;42.664;23.368;2023-04-20T08:38:01;94712.16;;;13.34;54.33
61292;BME280;47165;42.664;23.368;2023-04-20T08:40:26;94700.22;;;13.30;54.59
61292;BME280;47165;42.664;23.368;2023-04-20T08:42:55;94695.03;;;13.28;54.51
61292;BME280;47165;42.664;23.368;2023-04-20T08:45:20;94703.69;;;13.17;54.43
61292;BME280;47165;42.664;23.368;2023-04-20T08:47:48;94700.13;;;13.31;54.08
61292;BME280;47165;42.664;23.368;2023-04-20T08:50:14;94700.16;;;13.42;53.71
61292;BME280;47165;42.664;23.368;2023-04-20T08:52:40;94695.00;;;13.65;53.50
61292;BME280;47165;42.664;23.368;2023-04-20T08:55:06;94699.59;;;13.85;52.90
61292;BME280;47165;42.664;23.368;2023-04-20T08:57:32;94691.53;;;14.00;52.30
61292;BME280;47165;42.664;23.368;2023-04-20T08:59:57;94707.97;;;13.91;52.55
61292;BME280;47165;42.664;23.368;2023-04-20T09:02:23;94691.34;;;13.79;51.66
61292;BME280;47165;42.664;23.368;2023-04-20T09:04:59;94693.38;;;13.75;52.10
61292;BME280;47165;42.664;23.368;2023-04-20T09:07:25;94700.31;;;13.76;52.25
61292;BME280;47165;42.664;23.368;2023-04-20T09:09:54;94701.41;;;13.85;51.90
61292;BME280;47165;42.664;23.368;2023-04-20T09:12:20;94696.25;;;13.83;52.05
61292;BME280;47165;42.664;23.368;2023-04-20T09:14:46;94695.19;;;13.51;52.92
61292;BME280;47165;42.664;23.368;2023-04-20T09:17:13;94696.63;;;13.55;52.51
61292;BME280;47165;42.664;23.368;2023-04-20T09:19:40;94689.28;;;13.71;52.42
61292;BME280;47165;42.664;23.368;2023-04-20T09:22:05;94718.22;;;13.82;52.13
61292;BME280;47165;42.664;23.368;2023-04-20T09:24:36;94693.00;;;13.80;52.13
61292;BME280;47165;42.664;23.368;2023-04-20T09:27:16;94689.72;;;13.89;51.79
61292;BME280;47165;42.664;23.368;2023-04-20T09:29:42;94678.44;;;14.11;51.51
61292;BME280;47165;42.664;23.368;2023-04-20T09:32:22;94680.47;;;14.19;50.92
61292;BME280;47165;42.664;23.368;2023-04-20T09:34:48;94682.50;;;14.15;50.85
61292;BME280;47165;42.664;23.368;2023-04-20T09:37:14;94682.38;;;14.17;50.70
61292;BME280;47165;42.664;23.368;2023-04-20T09:39:44;94691.69;;;14.09;51.04
61292;BME280;47165;42.664;23.368;2023-04-20T09:42:14;94687.81;;;13.91;51.44
61292;BME280;47165;42.664;23.368;2023-04-20T09:44:40;94680.13;;;14.23;51.01
61292;BME280;47165;42.664;23.368;2023-04-20T09:50:28;94671.41;;;14.45;50.38
61292;BME280;47165;42.664;23.368;2023-04-20T09:52:55;94670.84;;;14.76;49.80
61292;BME280;47165;42.664;23.368;2023-04-20T09:55:22;94676.44;;;14.48;49.94
61292;BME280;47165;42.664;23.368;2023-04-20T09:57:49;94670.00;;;14.75;49.72
61292;BME280;47165;42.664;23.368;2023-04-20T10:00:15;94652.50;;;15.08;49.10
61292;BME280;47165;42.664;23.368;2023-04-20T10:02:45;94662.34;;;15.38;48.59
61292;BME280;47165;42.664;23.368;2023-04-20T10:05:11;94656.72;;;15.75;47.64
61292;BME280;47165;42.664;23.368;2023-04-20T10:07:36;94648.69;;;15.77;46.98
61292;BME280;47165;42.664;23.368;2023-04-20T10:12:27;94660.56;;;15.39;47.21
61292;BME280;47165;42.664;23.368;2023-04-20T10:43:19;94631.84;;;16.31;44.55
61292;BME280;47165;42.664;23.368;2023-04-20T10:45:45;94632.25;;;15.84;45.86
61292;BME280;47165;42.664;23.368;2023-04-20T10:48:11;94645.59;;;15.93;46.02
61292;BME280;47165;42.664;23.368;2023-04-20T10:50:37;94630.13;;;15.78;45.82
61292;BME280;47165;42.664;23.368;2023-04-20T10:53:03;94635.22;;;16.12;45.75
61292;BME280;47165;42.664;23.368;2023-04-20T10:55:29;94631.69;;;16.02;45.69
61292;BME280;47165;42.664;23.368;2023-04-20T10:57:55;94634.16;;;16.55;44.76
61292;BME280;47165;42.664;23.368;2023-04-20T11:00:23;94628.91;;;16.55;43.40
61292;BME280;47165;42.664;23.368;2023-04-20T11:02:50;94630.28;;;16.90;43.03
61292;BME280;47165;42.664;23.368;2023-04-20T11:05:20;94627.09;;;17.06;42.65
61292;BME280;47165;42.664;23.368;2023-04-20T11:10:22;94622.84;;;17.34;43.02
61292;BME280;47165;42.664;23.368;2023-04-20T11:12:48;94620.19;;;17.63;41.93
61292;BME280;47165;42.664;23.368;2023-04-20T11:15:13;94626.59;;;17.51;40.54
61292;BME280;47165;42.664;23.368;2023-04-20T11:17:40;94620.16;;;16.95;41.66
61292;BME280;47165;42.664;23.368;2023-04-20T11:20:11;94613.25;;;16.73;42.12
61292;BME280;47165;42.664;23.368;2023-04-20T11:22:38;94605.69;;;16.89;43.06
61292;BME280;47165;42.664;23.368;2023-04-20T11:25:05;94603.47;;;16.85;42.85
61292;BME280;47165;42.664;23.368;2023-04-20T11:27:35;94610.59;;;17.04;43.12
61292;BME280;47165;42.664;23.368;2023-04-20T11:30:02;94606.03;;;17.55;42.08
61292;BME280;47165;42.664;23.368;2023-04-20T11:32:32;94616.06;;;17.41;41.09
61292;BME280;47165;42.664;23.368;2023-04-20T11:35:03;94603.00;;;17.49;40.72
61292;BME280;47165;42.664;23.368;2023-04-20T11:37:33;94600.63;;;17.66;40.08
61292;BME280;47165;42.664;23.368;2023-04-20T11:40:10;94599.38;;;17.50;40.71
61292;BME280;47165;42.664;23.368;2023-04-20T11:42:36;94591.31;;;17.52;40.94
61292;BME280;47165;42.664;23.368;2023-04-20T11:45:01;94589.63;;;17.61;41.19
61292;BME280;47165;42.664;23.368;2023-04-20T11:50:48;94593.22;;;17.79;40.09
61292;BME280;47165;42.664;23.368;2023-04-20T11:53:14;94603.81;;;17.30;41.12
61292;BME280;47165;42.664;23.368;2023-04-20T11:55:40;94600.72;;;16.96;41.52
61292;BME280;47165;42.664;23.368;2023-04-20T11:58:06;94599.09;;;16.34;42.65
61292;BME280;47165;42.664;23.368;2023-04-20T12:00:32;94599.03;;;16.85;41.87
61292;BME280;47165;42.664;23.368;2023-04-20T12:02:58;94588.53;;;17.15;41.00
61292;BME280;47165;42.664;23.368;2023-04-20T12:05:23;94586.00;;;17.03;40.67
61292;BME280;47165;42.664;23.368;2023-04-20T12:07:49;94596.84;;;17.00;41.26
61292;BME280;47165;42.664;23.368;2023-04-20T12:10:15;94588.81;;;17.21;40.75
61292;BME280;47165;42.664;23.368;2023-04-20T12:12:40;94594.06;;;17.12;40.99
61292;BME280;47165;42.664;23.368;2023-04-20T12:15:06;94579.94;;;17.52;40.46
61292;BME280;47165;42.664;23.368;2023-04-20T12:17:32;94598.25;;;17.24;40.87
61292;BME280;47165;42.664;23.368;2023-04-20T12:19:57;94589.38;;;17.15;41.71
61292;BME280;47165;42.664;23.368;2023-04-20T12:22:23;94589.31;;;16.96;42.16
61292;BME280;47165;42.664;23.368;2023-04-20T12:24:48;94594.03;;;16.82;42.14
61292;BME280;47165;42.664;23.368;2023-04-20T12:27:14;94591.84;;;16.97;42.14
61292;BME280;47165;42.664;23.368;2023-04-20T12:29:39;94603.56;;;16.74;42.68
61292;BME280;47165;42.664;23.368;2023-04-20T12:32:05;94600.50;;;16.38;43.31
61292;BME280;47165;42.664;23.368;2023-04-20T12:34:30;94586.69;;;16.15;44.11
61292;BME280;47165;42.664;23.368;2023-04-20T12:36:56;94594.38;;;16.27;44.13
61292;BME280;47165;42.664;23.368;2023-04-20T12:39:21;94591.25;;;16.13;44.45
61292;BME280;47165;42.664;23.368;2023-04-20T12:41:46;94587.41;;;16.17;43.89
61292;BME280;47165;42.664;23.368;2023-04-20T12:44:12;94588.97;;;15.98;44.05
61292;BME280;47165;42.664;23.368;2023-04-20T12:46:37;94581.56;;;16.13;44.00
61292;BME280;47165;42.664;23.368;2023-04-20T12:49:03;94580.78;;;16.22;44.12
61292;BME280;47165;42.664;23.368;2023-04-20T12:51:28;94587.22;;;16.39;44.02
61292;BME280;47165;42.664;23.368;2023-04-20T12:53:54;94589.94;;;16.68;43.71
61292;BME280;47165;42.664;23.368;2023-04-20T12:56:19;94589.00;;;16.69;43.29
61292;BME280;47165;42.664;23.368;2023-04-20T12:58:45;94576.16;;;16.86;42.87
61292;BME280;47165;42.664;23.368;2023-04-20T13:01:11;94582.28;;;17.16;42.70
61292;BME280;47165;42.664;23.368;2023-04-20T13:03:36;94573.81;;;17.41;42.31
61292;BME280;47165;42.664;23.368;2023-04-20T13:06:02;94586.56;;;17.75;41.72
61292;BME280;47165;42.664;23.368;2023-04-20T13:08:27;94582.66;;;17.79;40.45
61292;BME280;47165;42.664;23.368;2023-04-20T13:10:53;94578.22;;;17.89;39.61
61292;BME280;47165;42.664;23.368;2023-04-20T13:13:18;94573.72;;;18.09;40.16
61292;BME280;47165;42.664;23.368;2023-04-20T13:15:44;94581.78;;;18.08;41.64
61292;BME280;47165;42.664;23.368;2023-04-20T13:18:09;94570.97;;;17.82;43.09
61292;BME280;47165;42.664;23.368;2023-04-20T13:20:35;94586.28;;;17.78;44.24
61292;BME280;47165;42.664;23.368;2023-04-20T13:23:01;94588.22;;;17.08;46.96
61292;BME280;47165;42.664;23.368;2023-04-20T13:25:28;94579.25;;;16.70;47.56
61292;BME280;47165;42.664;23.368;2023-04-20T13:27:57;94582.47;;;16.33;49.03
61292;BME280;47165;42.664;23.368;2023-04-20T13:30:22;94591.13;;;16.55;48.23
61292;BME280;47165;42.664;23.368;2023-04-20T13:32:48;94597.84;;;16.68;48.16
61292;BME280;47165;42.664;23.368;2023-04-20T13:35:13;94592.47;;;16.80;47.40
61292;BME280;47165;42.664;23.368;2023-04-20T13:37:40;94587.78;;;16.43;49.05